sensor_id;sensor_type;location;lat;lon;timestamp;P1;durP1;ratioP1;P2;durP2;ratioP2
908;SDS011;441;51.192;6.788;2024-01-27T00:00:39;8.63;;;8.10;;
908;SDS011;441;51.192;6.788;2024-01-27T00:03:06;7.50;;;7.30;;
908;SDS011;441;51.192;6.788;2024-01-27T00:05:32;7.97;;;7.67;;
908;SDS011;441;51.192;6.788;2024-01-27T00:07:59;7.70;;;7.40;;
908;SDS011;441;51.192;6.788;2024-01-27T00:10:28;7.60;;;7.40;;
908;SDS011;441;51.192;6.788;2024-01-27T00:12:54;8.17;;;7.90;;
908;SDS011;441;51.192;6.788;2024-01-27T00:15:22;8.67;;;8.27;;
908;SDS011;441;51.192;6.788;2024-01-27T00:17:49;8.00;;;7.80;;
908;SDS011;441;51.192;6.788;2024-01-27T00:20:16;8.20;;;7.80;;
908;SDS011;441;51.192;6.788;2024-01-27T00:22:43;8.50;;;8.00;;
908;SDS011;441;51.192;6.788;2024-01-27T00:25:10;8.10;;;7.90;;
908;SDS011;441;51.192;6.788;2024-01-27T00:27:38;8.00;;;7.73;;
908;SDS011;441;51.192;6.788;2024-01-27T00:30:06;8.30;;;7.90;;
908;SDS011;441;51.192;6.788;2024-01-27T00:32:33;8.67;;;8.27;;
908;SDS011;441;51.192;6.788;2024-01-27T00:35:00;9.13;;;8.70;;
908;SDS011;441;51.192;6.788;2024-01-27T00:37:28;8.20;;;7.73;;
908;SDS011;441;51.192;6.788;2024-01-27T00:39:54;7.90;;;7.70;;
908;SDS011;441;51.192;6.788;2024-01-27T00:42:21;7.77;;;7.43;;
908;SDS011;441;51.192;6.788;2024-01-27T00:44:50;7.77;;;7.57;;
908;SDS011;441;51.192;6.788;2024-01-27T00:47:17;7.73;;;7.50;;
908;SDS011;441;51.192;6.788;2024-01-27T00:49:44;8.50;;;8.30;;
908;SDS011;441;51.192;6.788;2024-01-27T00:52:11;7.87;;;7.57;;
908;SDS011;441;51.192;6.788;2024-01-27T00:54:38;8.00;;;7.73;;
908;SDS011;441;51.192;6.788;2024-01-27T00:57:05;6.63;;;6.53;;
908;SDS011;441;51.192;6.788;2024-01-27T00:59:31;7.30;;;7.10;;
908;SDS011;441;51.192;6.788;2024-01-27T01:02:00;7.13;;;6.83;;
908;SDS011;441;51.192;6.788;2024-01-27T01:04:26;8.37;;;7.97;;
908;SDS011;441;51.192;6.788;2024-01-27T01:06:53;8.40;;;8.10;;
908;SDS011;441;51.192;6.788;2024-01-27T01:09:20;7.93;;;7.60;;
908;SDS011;441;51.192;6.788;2024-01-27T01:11:47;9.00;;;8.53;;
908;SDS011;441;51.192;6.788;2024-01-27T01:14:14;8.30;;;8.00;;
908;SDS011;441;51.192;6.788;2024-01-27T01:16:41;7.80;;;7.60;;
908;SDS011;441;51.192;6.788;2024-01-27T01:19:09;8.20;;;7.80;;
908;SDS011;441;51.192;6.788;2024-01-27T01:21:36;7.20;;;6.90;;
908;SDS011;441;51.192;6.788;2024-01-27T01:24:03;8.10;;;7.80;;
908;SDS011;441;51.192;6.788;2024-01-27T01:26:30;7.47;;;7.23;;
908;SDS011;441;51.192;6.788;2024-01-27T01:28:57;8.10;;;7.50;;
908;SDS011;441;51.192;6.788;2024-01-27T01:31:24;8.30;;;7.90;;
908;SDS011;441;51.192;6.788;2024-01-27T01:33:51;8.30;;;8.00;;
908;SDS011;441;51.192;6.788;2024-01-27T01:36:19;8.00;;;7.70;;
908;SDS011;441;51.192;6.788;2024-01-27T01:38:46;8.23;;;7.73;;
908;SDS011;441;51.192;6.788;2024-01-27T01:41:13;7.90;;;7.70;;
908;SDS011;441;51.192;6.788;2024-01-27T01:43:40;7.90;;;7.70;;
908;SDS011;441;51.192;6.788;2024-01-27T01:46:07;7.30;;;7.07;;
908;SDS011;441;51.192;6.788;2024-01-27T01:48:34;7.97;;;7.67;;
908;SDS011;441;51.192;6.788;2024-01-27T01:51:01;7.37;;;7.17;;
908;SDS011;441;51.192;6.788;2024-01-27T01:53:30;7.83;;;7.43;;
908;SDS011;441;51.192;6.788;2024-01-27T01:55:57;7.50;;;7.20;;
908;SDS011;441;51.192;6.788;2024-01-27T01:58:24;7.30;;;7.10;;
908;SDS011;441;51.192;6.788;2024-01-27T02:00:52;8.23;;;7.90;;
908;SDS011;441;51.192;6.788;2024-01-27T02:03:18;7.93;;;7.73;;
908;SDS011;441;51.192;6.788;2024-01-27T02:05:45;7.47;;;7.27;;
908;SDS011;441;51.192;6.788;2024-01-27T02:08:12;7.60;;;7.40;;
908;SDS011;441;51.192;6.788;2024-01-27T02:10:41;8.03;;;7.63;;
908;SDS011;441;51.192;6.788;2024-01-27T02:13:15;7.60;;;7.40;;
908;SDS011;441;51.192;6.788;2024-01-27T02:15:43;7.73;;;7.43;;
908;SDS011;441;51.192;6.788;2024-01-27T02:18:10;7.77;;;7.50;;
908;SDS011;441;51.192;6.788;2024-01-27T02:20:37;8.20;;;7.30;;
908;SDS011;441;51.192;6.788;2024-01-27T02:23:04;8.10;;;7.90;;
908;SDS011;441;51.192;6.788;2024-01-27T02:25:33;7.20;;;7.00;;
908;SDS011;441;51.192;6.788;2024-01-27T02:28:00;8.20;;;7.90;;
908;SDS011;441;51.192;6.788;2024-01-27T02:30:28;7.47;;;7.27;;
908;SDS011;441;51.192;6.788;2024-01-27T02:32:55;7.70;;;7.40;;
908;SDS011;441;51.192;6.788;2024-01-27T02:35:23;7.93;;;7.73;;
908;SDS011;441;51.192;6.788;2024-01-27T02:37:50;8.30;;;7.70;;
908;SDS011;441;51.192;6.788;2024-01-27T02:40:17;8.03;;;7.83;;
908;SDS011;441;51.192;6.788;2024-01-27T02:42:45;8.13;;;7.83;;
908;SDS011;441;51.192;6.788;2024-01-27T02:45:12;8.43;;;8.03;;
908;SDS011;441;51.192;6.788;2024-01-27T02:47:39;7.97;;;7.53;;
908;SDS011;441;51.192;6.788;2024-01-27T02:50:06;7.60;;;7.40;;
908;SDS011;441;51.192;6.788;2024-01-27T02:52:34;6.90;;;6.70;;
908;SDS011;441;51.192;6.788;2024-01-27T02:55:01;7.30;;;7.10;;
908;SDS011;441;51.192;6.788;2024-01-27T02:57:28;8.63;;;8.23;;
908;SDS011;441;51.192;6.788;2024-01-27T02:59:56;8.70;;;8.40;;
908;SDS011;441;51.192;6.788;2024-01-27T03:02:23;8.20;;;7.80;;
908;SDS011;441;51.192;6.788;2024-01-27T03:04:50;8.17;;;7.97;;
908;SDS011;441;51.192;6.788;2024-01-27T03:07:17;7.77;;;7.57;;
908;SDS011;441;51.192;6.788;2024-01-27T03:09:44;7.20;;;7.00;;
908;SDS011;441;51.192;6.788;2024-01-27T03:12:11;7.37;;;7.13;;
908;SDS011;441;51.192;6.788;2024-01-27T03:14:38;7.30;;;7.00;;
908;SDS011;441;51.192;6.788;2024-01-27T03:17:06;7.53;;;7.33;;
908;SDS011;441;51.192;6.788;2024-01-27T03:19:33;7.40;;;7.20;;
908;SDS011;441;51.192;6.788;2024-01-27T03:22:00;7.33;;;6.93;;
908;SDS011;441;51.192;6.788;2024-01-27T03:24:27;6.90;;;6.80;;
908;SDS011;441;51.192;6.788;2024-01-27T03:26:54;7.40;;;7.13;;
908;SDS011;441;51.192;6.788;2024-01-27T03:29:20;7.97;;;7.60;;
908;SDS011;441;51.192;6.788;2024-01-27T03:31:47;7.90;;;7.40;;
908;SDS011;441;51.192;6.788;2024-01-27T03:34:16;8.57;;;8.17;;
908;SDS011;441;51.192;6.788;2024-01-27T03:36:47;9.10;;;8.80;;
908;SDS011;441;51.192;6.788;2024-01-27T03:39:14;8.00;;;7.70;;
908;SDS011;441;51.192;6.788;2024-01-27T03:41:41;7.97;;;7.67;;
908;SDS011;441;51.192;6.788;2024-01-27T03:44:08;7.30;;;7.10;;
908;SDS011;441;51.192;6.788;2024-01-27T03:46:35;8.17;;;7.97;;
908;SDS011;441;51.192;6.788;2024-01-27T03:49:04;8.37;;;8.07;;
908;SDS011;441;51.192;6.788;2024-01-27T03:51:32;8.10;;;7.80;;
908;SDS011;441;51.192;6.788;2024-01-27T03:53:59;8.77;;;8.47;;
908;SDS011;441;51.192;6.788;2024-01-27T03:56:26;8.27;;;7.97;;
908;SDS011;441;51.192;6.788;2024-01-27T03:58:53;8.43;;;8.03;;
908;SDS011;441;51.192;6.788;2024-01-27T04:01:20;7.50;;;7.20;;
908;SDS011;441;51.192;6.788;2024-01-27T04:03:47;7.83;;;7.57;;
908;SDS011;441;51.192;6.788;2024-01-27T04:06:14;7.97;;;7.77;;
908;SDS011;441;51.192;6.788;2024-01-27T04:08:42;8.20;;;7.90;;
908;SDS011;441;51.192;6.788;2024-01-27T04:11:18;8.90;;;8.60;;
908;SDS011;441;51.192;6.788;2024-01-27T04:13:45;8.90;;;8.70;;
908;SDS011;441;51.192;6.788;2024-01-27T04:16:12;7.60;;;7.40;;
908;SDS011;441;51.192;6.788;2024-01-27T04:18:39;8.70;;;8.20;;
908;SDS011;441;51.192;6.788;2024-01-27T04:21:07;8.53;;;8.07;;
908;SDS011;441;51.192;6.788;2024-01-27T04:23:34;9.30;;;8.77;;
908;SDS011;441;51.192;6.788;2024-01-27T04:26:02;8.37;;;7.97;;
908;SDS011;441;51.192;6.788;2024-01-27T04:28:31;8.30;;;7.90;;
908;SDS011;441;51.192;6.788;2024-01-27T04:30:58;8.03;;;7.80;;
908;SDS011;441;51.192;6.788;2024-01-27T04:33:26;8.33;;;7.87;;
908;SDS011;441;51.192;6.788;2024-01-27T04:35:52;7.37;;;7.07;;
908;SDS011;441;51.192;6.788;2024-01-27T04:38:19;8.10;;;7.60;;
908;SDS011;441;51.192;6.788;2024-01-27T04:40:46;8.10;;;7.80;;
908;SDS011;441;51.192;6.788;2024-01-27T04:43:15;9.10;;;8.70;;
908;SDS011;441;51.192;6.788;2024-01-27T04:45:43;9.53;;;9.23;;
908;SDS011;441;51.192;6.788;2024-01-27T04:48:10;9.10;;;8.80;;
908;SDS011;441;51.192;6.788;2024-01-27T04:50:37;8.67;;;8.37;;
908;SDS011;441;51.192;6.788;2024-01-27T04:53:04;8.53;;;8.30;;
908;SDS011;441;51.192;6.788;2024-01-27T04:55:31;9.63;;;9.23;;
908;SDS011;441;51.192;6.788;2024-01-27T04:57:58;9.10;;;8.90;;
908;SDS011;441;51.192;6.788;2024-01-27T05:00:27;9.33;;;8.80;;
908;SDS011;441;51.192;6.788;2024-01-27T05:02:54;8.90;;;8.50;;
908;SDS011;441;51.192;6.788;2024-01-27T05:05:20;9.63;;;9.23;;
908;SDS011;441;51.192;6.788;2024-01-27T05:07:47;8.60;;;8.30;;
908;SDS011;441;51.192;6.788;2024-01-27T05:10:14;8.57;;;8.27;;
908;SDS011;441;51.192;6.788;2024-01-27T05:12:42;8.67;;;8.47;;
908;SDS011;441;51.192;6.788;2024-01-27T05:15:09;9.30;;;9.10;;
908;SDS011;441;51.192;6.788;2024-01-27T05:17:38;10.20;;;9.70;;
908;SDS011;441;51.192;6.788;2024-01-27T05:20:05;7.30;;;7.10;;
908;SDS011;441;51.192;6.788;2024-01-27T05:22:33;10.10;;;9.63;;
908;SDS011;441;51.192;6.788;2024-01-27T05:25:01;9.20;;;9.00;;
908;SDS011;441;51.192;6.788;2024-01-27T05:27:36;8.83;;;8.53;;
908;SDS011;441;51.192;6.788;2024-01-27T05:30:03;9.63;;;9.23;;
908;SDS011;441;51.192;6.788;2024-01-27T05:32:31;7.70;;;7.05;;
908;SDS011;441;51.192;6.788;2024-01-27T05:35:00;9.27;;;8.87;;
908;SDS011;441;51.192;6.788;2024-01-27T05:37:27;8.30;;;8.00;;
908;SDS011;441;51.192;6.788;2024-01-27T05:39:55;8.37;;;8.00;;
908;SDS011;441;51.192;6.788;2024-01-27T05:42:22;9.30;;;9.00;;
908;SDS011;441;51.192;6.788;2024-01-27T05:44:49;8.60;;;8.30;;
908;SDS011;441;51.192;6.788;2024-01-27T05:47:16;8.50;;;8.13;;
908;SDS011;441;51.192;6.788;2024-01-27T05:49:45;9.13;;;8.83;;
908;SDS011;441;51.192;6.788;2024-01-27T05:52:15;9.47;;;9.07;;
908;SDS011;441;51.192;6.788;2024-01-27T05:54:44;8.33;;;8.13;;
908;SDS011;441;51.192;6.788;2024-01-27T05:57:11;8.90;;;8.50;;
908;SDS011;441;51.192;6.788;2024-01-27T05:59:43;8.87;;;8.57;;
908;SDS011;441;51.192;6.788;2024-01-27T06:02:10;8.37;;;7.90;;
908;SDS011;441;51.192;6.788;2024-01-27T06:04:37;9.07;;;8.77;;
908;SDS011;441;51.192;6.788;2024-01-27T06:07:04;8.40;;;7.97;;
908;SDS011;441;51.192;6.788;2024-01-27T06:09:32;8.30;;;8.00;;
908;SDS011;441;51.192;6.788;2024-01-27T06:11:59;7.70;;;7.50;;
908;SDS011;441;51.192;6.788;2024-01-27T06:14:26;8.10;;;7.80;;
908;SDS011;441;51.192;6.788;2024-01-27T06:16:53;8.50;;;8.10;;
908;SDS011;441;51.192;6.788;2024-01-27T06:19:20;7.87;;;7.60;;
908;SDS011;441;51.192;6.788;2024-01-27T06:21:47;9.30;;;9.00;;
908;SDS011;441;51.192;6.788;2024-01-27T06:24:14;8.93;;;8.63;;
908;SDS011;441;51.192;6.788;2024-01-27T06:26:42;8.17;;;7.90;;
908;SDS011;441;51.192;6.788;2024-01-27T06:29:09;9.60;;;9.30;;
908;SDS011;441;51.192;6.788;2024-01-27T06:31:36;8.77;;;8.57;;
908;SDS011;441;51.192;6.788;2024-01-27T06:34:03;9.07;;;8.70;;
908;SDS011;441;51.192;6.788;2024-01-27T06:36:30;10.53;;;10.03;;
908;SDS011;441;51.192;6.788;2024-01-27T06:38:57;9.10;;;8.70;;
908;SDS011;441;51.192;6.788;2024-01-27T06:41:24;6.70;;;6.50;;
908;SDS011;441;51.192;6.788;2024-01-27T06:43:52;8.33;;;8.13;;
908;SDS011;441;51.192;6.788;2024-01-27T06:46:19;8.80;;;8.40;;
908;SDS011;441;51.192;6.788;2024-01-27T06:48:46;8.90;;;8.40;;
908;SDS011;441;51.192;6.788;2024-01-27T06:51:13;10.37;;;9.47;;
908;SDS011;441;51.192;6.788;2024-01-27T06:53:40;11.23;;;10.53;;
908;SDS011;441;51.192;6.788;2024-01-27T06:56:07;10.60;;;10.00;;
908;SDS011;441;51.192;6.788;2024-01-27T06:58:34;11.00;;;10.50;;
908;SDS011;441;51.192;6.788;2024-01-27T07:01:03;11.77;;;10.20;;
908;SDS011;441;51.192;6.788;2024-01-27T07:03:30;10.33;;;9.37;;
908;SDS011;441;51.192;6.788;2024-01-27T07:05:56;17.97;;;9.87;;
908;SDS011;441;51.192;6.788;2024-01-27T07:08:25;10.30;;;9.50;;
908;SDS011;441;51.192;6.788;2024-01-27T07:10:52;10.63;;;9.53;;
908;SDS011;441;51.192;6.788;2024-01-27T07:13:19;10.87;;;10.07;;
908;SDS011;441;51.192;6.788;2024-01-27T07:15:46;10.17;;;9.43;;
908;SDS011;441;51.192;6.788;2024-01-27T07:18:14;11.20;;;10.60;;
908;SDS011;441;51.192;6.788;2024-01-27T07:20:42;10.13;;;9.60;;
908;SDS011;441;51.192;6.788;2024-01-27T07:23:09;10.73;;;9.93;;
908;SDS011;441;51.192;6.788;2024-01-27T07:25:36;10.90;;;10.10;;
908;SDS011;441;51.192;6.788;2024-01-27T07:28:03;10.07;;;9.57;;
908;SDS011;441;51.192;6.788;2024-01-27T07:30:30;10.50;;;10.20;;
908;SDS011;441;51.192;6.788;2024-01-27T07:32:57;11.40;;;10.57;;
908;SDS011;441;51.192;6.788;2024-01-27T07:35:25;10.33;;;9.90;;
908;SDS011;441;51.192;6.788;2024-01-27T07:37:52;11.33;;;10.53;;
908;SDS011;441;51.192;6.788;2024-01-27T07:40:19;10.10;;;9.27;;
908;SDS011;441;51.192;6.788;2024-01-27T07:42:47;10.93;;;9.90;;
908;SDS011;441;51.192;6.788;2024-01-27T07:45:14;9.93;;;9.53;;
908;SDS011;441;51.192;6.788;2024-01-27T07:47:41;11.00;;;10.23;;
908;SDS011;441;51.192;6.788;2024-01-27T07:50:09;9.33;;;8.90;;
908;SDS011;441;51.192;6.788;2024-01-27T07:52:37;11.17;;;10.20;;
908;SDS011;441;51.192;6.788;2024-01-27T07:55:04;10.40;;;9.70;;
908;SDS011;441;51.192;6.788;2024-01-27T07:57:31;11.00;;;10.40;;
908;SDS011;441;51.192;6.788;2024-01-27T07:59:58;10.27;;;9.80;;
908;SDS011;441;51.192;6.788;2024-01-27T08:02:25;10.10;;;9.63;;
908;SDS011;441;51.192;6.788;2024-01-27T08:04:52;10.20;;;9.70;;
908;SDS011;441;51.192;6.788;2024-01-27T08:07:19;11.30;;;10.70;;
908;SDS011;441;51.192;6.788;2024-01-27T08:09:47;12.03;;;11.30;;
908;SDS011;441;51.192;6.788;2024-01-27T08:12:14;11.77;;;11.13;;
908;SDS011;441;51.192;6.788;2024-01-27T08:14:41;10.93;;;10.43;;
908;SDS011;441;51.192;6.788;2024-01-27T08:17:08;11.70;;;11.20;;
908;SDS011;441;51.192;6.788;2024-01-27T08:19:35;11.80;;;11.10;;
908;SDS011;441;51.192;6.788;2024-01-27T08:22:02;10.20;;;9.70;;
908;SDS011;441;51.192;6.788;2024-01-27T08:24:29;10.73;;;10.43;;
908;SDS011;441;51.192;6.788;2024-01-27T08:26:58;11.30;;;10.90;;
908;SDS011;441;51.192;6.788;2024-01-27T08:29:25;11.10;;;10.60;;
908;SDS011;441;51.192;6.788;2024-01-27T08:31:52;10.67;;;10.27;;
908;SDS011;441;51.192;6.788;2024-01-27T08:34:19;10.70;;;10.10;;
908;SDS011;441;51.192;6.788;2024-01-27T08:36:46;12.00;;;11.60;;
908;SDS011;441;51.192;6.788;2024-01-27T08:39:13;11.70;;;11.23;;
908;SDS011;441;51.192;6.788;2024-01-27T08:41:40;11.60;;;10.90;;
908;SDS011;441;51.192;6.788;2024-01-27T08:44:08;12.30;;;11.43;;
908;SDS011;441;51.192;6.788;2024-01-27T08:46:35;11.63;;;11.17;;
908;SDS011;441;51.192;6.788;2024-01-27T08:49:02;12.53;;;11.83;;
908;SDS011;441;51.192;6.788;2024-01-27T08:51:29;12.63;;;11.80;;
908;SDS011;441;51.192;6.788;2024-01-27T08:53:56;11.17;;;10.67;;
908;SDS011;441;51.192;6.788;2024-01-27T08:56:22;11.57;;;11.10;;
908;SDS011;441;51.192;6.788;2024-01-27T08:58:49;11.40;;;10.70;;
908;SDS011;441;51.192;6.788;2024-01-27T09:01:19;11.87;;;11.03;;
908;SDS011;441;51.192;6.788;2024-01-27T09:03:46;11.07;;;10.67;;
908;SDS011;441;51.192;6.788;2024-01-27T09:06:12;11.30;;;10.90;;
908;SDS011;441;51.192;6.788;2024-01-27T09:08:39;11.90;;;11.40;;
908;SDS011;441;51.192;6.788;2024-01-27T09:11:06;11.43;;;10.73;;
908;SDS011;441;51.192;6.788;2024-01-27T09:13:34;11.00;;;10.50;;
908;SDS011;441;51.192;6.788;2024-01-27T09:16:01;11.80;;;11.30;;
908;SDS011;441;51.192;6.788;2024-01-27T09:18:29;11.87;;;11.37;;
908;SDS011;441;51.192;6.788;2024-01-27T09:20:56;11.37;;;10.97;;
908;SDS011;441;51.192;6.788;2024-01-27T09:23:23;11.07;;;10.73;;
908;SDS011;441;51.192;6.788;2024-01-27T09:25:50;11.10;;;10.70;;
908;SDS011;441;51.192;6.788;2024-01-27T09:28:17;12.00;;;11.63;;
908;SDS011;441;51.192;6.788;2024-01-27T09:30:44;11.63;;;11.33;;
908;SDS011;441;51.192;6.788;2024-01-27T09:33:11;10.70;;;10.30;;
908;SDS011;441;51.192;6.788;2024-01-27T09:35:39;11.50;;;11.00;;
908;SDS011;441;51.192;6.788;2024-01-27T09:38:06;11.00;;;10.70;;
908;SDS011;441;51.192;6.788;2024-01-27T09:40:35;11.73;;;11.13;;
908;SDS011;441;51.192;6.788;2024-01-27T09:43:02;12.00;;;11.43;;
908;SDS011;441;51.192;6.788;2024-01-27T09:45:29;10.93;;;10.53;;
908;SDS011;441;51.192;6.788;2024-01-27T09:47:56;11.00;;;10.60;;
908;SDS011;441;51.192;6.788;2024-01-27T09:50:26;10.97;;;10.57;;
908;SDS011;441;51.192;6.788;2024-01-27T09:52:54;11.07;;;10.77;;
908;SDS011;441;51.192;6.788;2024-01-27T09:55:21;12.00;;;11.30;;
908;SDS011;441;51.192;6.788;2024-01-27T09:57:48;11.30;;;10.90;;
908;SDS011;441;51.192;6.788;2024-01-27T10:00:15;11.07;;;10.43;;
908;SDS011;441;51.192;6.788;2024-01-27T10:02:43;10.87;;;10.27;;
908;SDS011;441;51.192;6.788;2024-01-27T10:05:12;11.23;;;10.83;;
908;SDS011;441;51.192;6.788;2024-01-27T10:07:40;10.90;;;10.50;;
908;SDS011;441;51.192;6.788;2024-01-27T10:10:08;11.63;;;11.23;;
908;SDS011;441;51.192;6.788;2024-01-27T10:12:38;11.53;;;11.03;;
908;SDS011;441;51.192;6.788;2024-01-27T10:15:17;11.40;;;11.00;;
908;SDS011;441;51.192;6.788;2024-01-27T10:17:45;11.40;;;10.90;;
908;SDS011;441;51.192;6.788;2024-01-27T10:20:12;11.77;;;11.30;;
908;SDS011;441;51.192;6.788;2024-01-27T10:22:43;10.80;;;10.50;;
908;SDS011;441;51.192;6.788;2024-01-27T10:25:15;11.53;;;11.20;;
908;SDS011;441;51.192;6.788;2024-01-27T10:27:43;10.57;;;10.27;;
908;SDS011;441;51.192;6.788;2024-01-27T10:30:14;11.10;;;10.60;;
908;SDS011;441;51.192;6.788;2024-01-27T10:32:55;11.57;;;11.10;;
908;SDS011;441;51.192;6.788;2024-01-27T10:35:23;11.30;;;10.90;;
908;SDS011;441;51.192;6.788;2024-01-27T10:37:51;11.03;;;10.73;;
908;SDS011;441;51.192;6.788;2024-01-27T10:40:21;11.10;;;10.80;;
908;SDS011;441;51.192;6.788;2024-01-27T10:42:51;11.77;;;10.90;;
908;SDS011;441;51.192;6.788;2024-01-27T10:45:26;11.40;;;11.00;;
908;SDS011;441;51.192;6.788;2024-01-27T10:47:54;11.53;;;11.07;;
908;SDS011;441;51.192;6.788;2024-01-27T10:50:25;11.33;;;10.93;;
908;SDS011;441;51.192;6.788;2024-01-27T10:52:53;10.63;;;10.33;;
908;SDS011;441;51.192;6.788;2024-01-27T10:55:25;10.90;;;10.50;;
908;SDS011;441;51.192;6.788;2024-01-27T10:57:52;11.10;;;10.47;;
908;SDS011;441;51.192;6.788;2024-01-27T11:00:21;10.83;;;10.43;;
908;SDS011;441;51.192;6.788;2024-01-27T11:02:50;10.97;;;10.47;;
908;SDS011;441;51.192;6.788;2024-01-27T11:05:19;11.00;;;10.40;;
908;SDS011;441;51.192;6.788;2024-01-27T11:07:47;10.40;;;10.07;;
908;SDS011;441;51.192;6.788;2024-01-27T11:10:16;10.57;;;10.27;;
908;SDS011;441;51.192;6.788;2024-01-27T11:12:44;10.57;;;10.20;;
908;SDS011;441;51.192;6.788;2024-01-27T11:15:13;10.70;;;10.40;;
908;SDS011;441;51.192;6.788;2024-01-27T11:17:41;11.30;;;10.80;;
908;SDS011;441;51.192;6.788;2024-01-27T11:20:09;10.80;;;10.40;;
908;SDS011;441;51.192;6.788;2024-01-27T11:22:38;11.40;;;10.67;;
908;SDS011;441;51.192;6.788;2024-01-27T11:25:08;11.20;;;10.70;;
908;SDS011;441;51.192;6.788;2024-01-27T11:27:41;10.70;;;10.13;;
908;SDS011;441;51.192;6.788;2024-01-27T11:30:24;10.40;;;10.10;;
908;SDS011;441;51.192;6.788;2024-01-27T11:32:53;11.20;;;10.70;;
908;SDS011;441;51.192;6.788;2024-01-27T11:35:21;10.80;;;10.30;;
908;SDS011;441;51.192;6.788;2024-01-27T11:37:48;10.43;;;10.10;;
908;SDS011;441;51.192;6.788;2024-01-27T11:40:16;9.90;;;9.50;;
908;SDS011;441;51.192;6.788;2024-01-27T11:42:43;11.03;;;10.47;;
908;SDS011;441;51.192;6.788;2024-01-27T11:45:09;10.63;;;10.33;;
908;SDS011;441;51.192;6.788;2024-01-27T11:47:38;8.23;;;7.93;;
908;SDS011;441;51.192;6.788;2024-01-27T11:50:05;11.03;;;10.63;;
908;SDS011;441;51.192;6.788;2024-01-27T11:52:33;10.47;;;10.17;;
908;SDS011;441;51.192;6.788;2024-01-27T11:55:00;10.33;;;9.93;;
908;SDS011;441;51.192;6.788;2024-01-27T11:57:27;11.10;;;10.77;;
908;SDS011;441;51.192;6.788;2024-01-27T11:59:55;10.70;;;10.30;;
908;SDS011;441;51.192;6.788;2024-01-27T12:02:24;10.97;;;10.47;;
908;SDS011;441;51.192;6.788;2024-01-27T12:04:52;11.23;;;10.70;;
908;SDS011;441;51.192;6.788;2024-01-27T12:07:20;10.90;;;10.60;;
908;SDS011;441;51.192;6.788;2024-01-27T12:09:48;10.50;;;10.10;;
908;SDS011;441;51.192;6.788;2024-01-27T12:12:15;10.13;;;9.83;;
908;SDS011;441;51.192;6.788;2024-01-27T12:14:44;10.83;;;10.43;;
908;SDS011;441;51.192;6.788;2024-01-27T12:17:12;10.87;;;10.57;;
908;SDS011;441;51.192;6.788;2024-01-27T12:19:45;11.13;;;10.83;;
908;SDS011;441;51.192;6.788;2024-01-27T12:22:21;10.70;;;10.30;;
908;SDS011;441;51.192;6.788;2024-01-27T12:24:50;10.90;;;10.60;;
908;SDS011;441;51.192;6.788;2024-01-27T12:27:17;10.83;;;10.43;;
908;SDS011;441;51.192;6.788;2024-01-27T12:29:46;10.43;;;10.13;;
908;SDS011;441;51.192;6.788;2024-01-27T12:32:14;10.37;;;10.07;;
908;SDS011;441;51.192;6.788;2024-01-27T12:34:41;11.00;;;10.50;;
908;SDS011;441;51.192;6.788;2024-01-27T12:37:08;10.93;;;10.53;;
908;SDS011;441;51.192;6.788;2024-01-27T12:39:38;11.23;;;10.83;;
908;SDS011;441;51.192;6.788;2024-01-27T12:42:08;11.17;;;10.67;;
908;SDS011;441;51.192;6.788;2024-01-27T12:44:35;10.23;;;9.93;;
908;SDS011;441;51.192;6.788;2024-01-27T12:47:01;9.97;;;9.67;;
908;SDS011;441;51.192;6.788;2024-01-27T12:49:29;11.00;;;10.50;;
908;SDS011;441;51.192;6.788;2024-01-27T12:51:56;10.67;;;10.30;;
908;SDS011;441;51.192;6.788;2024-01-27T12:54:23;10.70;;;10.30;;
908;SDS011;441;51.192;6.788;2024-01-27T12:56:51;10.97;;;10.57;;
908;SDS011;441;51.192;6.788;2024-01-27T12:59:18;10.53;;;10.23;;
908;SDS011;441;51.192;6.788;2024-01-27T13:01:45;11.13;;;10.60;;
908;SDS011;441;51.192;6.788;2024-01-27T13:04:12;10.13;;;9.83;;
908;SDS011;441;51.192;6.788;2024-01-27T13:06:39;10.37;;;10.07;;
908;SDS011;441;51.192;6.788;2024-01-27T13:09:07;10.80;;;10.40;;
908;SDS011;441;51.192;6.788;2024-01-27T13:11:36;10.30;;;10.00;;
908;SDS011;441;51.192;6.788;2024-01-27T13:14:04;10.20;;;9.90;;
908;SDS011;441;51.192;6.788;2024-01-27T13:16:31;10.80;;;10.50;;
908;SDS011;441;51.192;6.788;2024-01-27T13:18:58;10.53;;;10.23;;
908;SDS011;441;51.192;6.788;2024-01-27T13:21:25;10.30;;;9.90;;
908;SDS011;441;51.192;6.788;2024-01-27T13:23:52;9.90;;;9.70;;
908;SDS011;441;51.192;6.788;2024-01-27T13:26:19;10.30;;;9.70;;
908;SDS011;441;51.192;6.788;2024-01-27T13:28:46;10.23;;;9.83;;
908;SDS011;441;51.192;6.788;2024-01-27T13:31:15;9.90;;;9.57;;
908;SDS011;441;51.192;6.788;2024-01-27T13:33:42;10.20;;;9.80;;
908;SDS011;441;51.192;6.788;2024-01-27T13:36:09;10.53;;;10.07;;
908;SDS011;441;51.192;6.788;2024-01-27T13:38:36;10.67;;;10.37;;
908;SDS011;441;51.192;6.788;2024-01-27T13:41:03;11.37;;;10.87;;
908;SDS011;441;51.192;6.788;2024-01-27T13:43:30;10.80;;;10.40;;
908;SDS011;441;51.192;6.788;2024-01-27T13:45:57;11.27;;;10.97;;
908;SDS011;441;51.192;6.788;2024-01-27T13:48:25;10.20;;;9.90;;
908;SDS011;441;51.192;6.788;2024-01-27T13:50:52;11.50;;;11.20;;
908;SDS011;441;51.192;6.788;2024-01-27T13:53:21;11.00;;;10.50;;
908;SDS011;441;51.192;6.788;2024-01-27T13:55:52;11.03;;;10.73;;
908;SDS011;441;51.192;6.788;2024-01-27T13:58:19;10.80;;;10.50;;
908;SDS011;441;51.192;6.788;2024-01-27T14:00:47;11.00;;;10.50;;
908;SDS011;441;51.192;6.788;2024-01-27T14:03:15;10.70;;;10.40;;
908;SDS011;441;51.192;6.788;2024-01-27T14:05:44;10.17;;;9.73;;
908;SDS011;441;51.192;6.788;2024-01-27T14:08:12;10.10;;;9.80;;
908;SDS011;441;51.192;6.788;2024-01-27T14:10:40;10.10;;;9.80;;
908;SDS011;441;51.192;6.788;2024-01-27T14:13:08;9.90;;;9.60;;
908;SDS011;441;51.192;6.788;2024-01-27T14:15:35;10.37;;;9.97;;
908;SDS011;441;51.192;6.788;2024-01-27T14:18:02;9.57;;;9.37;;
908;SDS011;441;51.192;6.788;2024-01-27T14:20:31;10.27;;;9.80;;
908;SDS011;441;51.192;6.788;2024-01-27T14:23:00;9.57;;;9.30;;
908;SDS011;441;51.192;6.788;2024-01-27T14:25:27;9.50;;;9.20;;
908;SDS011;441;51.192;6.788;2024-01-27T14:27:54;10.40;;;10.10;;
908;SDS011;441;51.192;6.788;2024-01-27T14:30:21;10.73;;;10.07;;
908;SDS011;441;51.192;6.788;2024-01-27T14:32:48;9.90;;;9.60;;
908;SDS011;441;51.192;6.788;2024-01-27T14:35:15;9.70;;;9.50;;
908;SDS011;441;51.192;6.788;2024-01-27T14:37:42;10.23;;;9.93;;
908;SDS011;441;51.192;6.788;2024-01-27T14:40:13;9.77;;;9.47;;
908;SDS011;441;51.192;6.788;2024-01-27T14:42:39;9.57;;;9.27;;
908;SDS011;441;51.192;6.788;2024-01-27T14:45:07;10.57;;;10.20;;
908;SDS011;441;51.192;6.788;2024-01-27T14:47:35;10.17;;;9.67;;
908;SDS011;441;51.192;6.788;2024-01-27T14:50:02;9.80;;;9.50;;
908;SDS011;441;51.192;6.788;2024-01-27T14:52:29;9.30;;;9.10;;
908;SDS011;441;51.192;6.788;2024-01-27T14:54:57;9.97;;;9.57;;
908;SDS011;441;51.192;6.788;2024-01-27T14:57:25;9.47;;;9.17;;
908;SDS011;441;51.192;6.788;2024-01-27T14:59:52;9.17;;;8.97;;
908;SDS011;441;51.192;6.788;2024-01-27T15:02:19;9.47;;;9.07;;
908;SDS011;441;51.192;6.788;2024-01-27T15:04:46;9.27;;;9.07;;
908;SDS011;441;51.192;6.788;2024-01-27T15:07:13;8.90;;;8.60;;
908;SDS011;441;51.192;6.788;2024-01-27T15:09:41;9.73;;;9.43;;
908;SDS011;441;51.192;6.788;2024-01-27T15:12:08;9.37;;;9.10;;
908;SDS011;441;51.192;6.788;2024-01-27T15:14:36;9.43;;;9.10;;
908;SDS011;441;51.192;6.788;2024-01-27T15:17:03;9.87;;;9.40;;
908;SDS011;441;51.192;6.788;2024-01-27T15:19:32;10.13;;;9.83;;
908;SDS011;441;51.192;6.788;2024-01-27T15:21:59;9.87;;;9.47;;
908;SDS011;441;51.192;6.788;2024-01-27T15:24:27;9.60;;;9.40;;
908;SDS011;441;51.192;6.788;2024-01-27T15:26:54;9.17;;;8.83;;
908;SDS011;441;51.192;6.788;2024-01-27T15:29:21;9.20;;;8.90;;
908;SDS011;441;51.192;6.788;2024-01-27T15:31:49;9.17;;;8.97;;
908;SDS011;441;51.192;6.788;2024-01-27T15:34:16;9.37;;;9.07;;